sensor_id;sensor_type;location;lat;lon;timestamp;P1;durP1;ratioP1;P2;durP2;ratioP2
6424;SDS011;12193;42.642;23.384;2023-04-15T00:01:47;4.17;;;2.70;;
6424;SDS011;12193;42.642;23.384;2023-04-15T00:04:17;3.63;;;2.30;;
6424;SDS011;12193;42.642;23.384;2023-04-15T03:08:39;3.47;;;2.40;;
6424;SDS011;12193;42.642;23.384;2023-04-15T03:11:10;3.20;;;2.50;;
6424;SDS011;12193;42.642;23.384;2023-04-15T03:13:39;4.67;;;2.73;;
6424;SDS011;12193;42.642;23.384;2023-04-15T03:16:09;5.73;;;3.03;;
6424;SDS011;12193;42.642;23.384;2023-04-15T03:18:38;4.93;;;2.50;;
6424;SDS011;12193;42.642;23.384;2023-04-15T03:21:07;6.57;;;2.70;;
6424;SDS011;12193;42.642;23.384;2023-04-15T03:23:39;5.70;;;2.80;;
6424;SDS011;12193;42.642;23.384;2023-04-15T03:26:09;3.07;;;2.67;;
6424;SDS011;12193;42.642;23.384;2023-04-15T03:28:38;4.17;;;2.80;;
6424;SDS011;12193;42.642;23.384;2023-04-15T03:31:07;5.80;;;3.20;;
6424;SDS011;12193;42.642;23.384;2023-04-15T03:33:37;4.33;;;3.10;;
6424;SDS011;12193;42.642;23.384;2023-04-15T03:36:06;5.50;;;3.50;;
6424;SDS011;12193;42.642;23.384;2023-04-15T03:38:35;3.83;;;2.53;;
6424;SDS011;12193;42.642;23.384;2023-04-15T03:41:08;6.30;;;3.20;;
6424;SDS011;12193;42.642;23.384;2023-04-15T03:43:37;8.67;;;3.40;;
6424;SDS011;12193;42.642;23.384;2023-04-15T03:46:07;6.60;;;3.03;;
6424;SDS011;12193;42.642;23.384;2023-04-15T03:48:36;5.70;;;3.17;;
6424;SDS011;12193;42.642;23.384;2023-04-15T03:51:06;4.80;;;3.00;;
6424;SDS011;12193;42.642;23.384;2023-04-15T03:53:35;4.67;;;3.17;;
6424;SDS011;12193;42.642;23.384;2023-04-15T03:56:08;5.43;;;3.20;;
6424;SDS011;12193;42.642;23.384;2023-04-15T03:58:37;7.80;;;3.70;;
6424;SDS011;12193;42.642;23.384;2023-04-15T04:01:06;9.73;;;4.10;;
6424;SDS011;12193;42.642;23.384;2023-04-15T04:03:36;5.93;;;3.60;;
6424;SDS011;12193;42.642;23.384;2023-04-15T04:06:06;6.47;;;3.57;;
6424;SDS011;12193;42.642;23.384;2023-04-15T04:08:37;7.23;;;3.67;;
6424;SDS011;12193;42.642;23.384;2023-04-15T04:11:09;5.17;;;3.30;;
6424;SDS011;12193;42.642;23.384;2023-04-15T04:13:38;6.33;;;3.73;;
6424;SDS011;12193;42.642;23.384;2023-04-15T04:16:08;7.03;;;3.60;;
6424;SDS011;12193;42.642;23.384;2023-04-15T04:18:37;5.73;;;3.60;;
6424;SDS011;12193;42.642;23.384;2023-04-15T04:21:07;8.70;;;3.90;;
6424;SDS011;12193;42.642;23.384;2023-04-15T04:23:36;6.93;;;4.00;;
6424;SDS011;12193;42.642;23.384;2023-04-15T04:26:05;9.23;;;4.23;;
6424;SDS011;12193;42.642;23.384;2023-04-15T04:28:38;8.27;;;4.13;;
6424;SDS011;12193;42.642;23.384;2023-04-15T04:31:07;9.60;;;4.43;;
6424;SDS011;12193;42.642;23.384;2023-04-15T04:33:37;9.40;;;5.00;;
6424;SDS011;12193;42.642;23.384;2023-04-15T04:36:06;9.10;;;5.00;;
6424;SDS011;12193;42.642;23.384;2023-04-15T04:38:36;7.83;;;4.80;;
6424;SDS011;12193;42.642;23.384;2023-04-15T04:41:05;7.73;;;4.77;;
6424;SDS011;12193;42.642;23.384;2023-04-15T04:43:35;9.77;;;5.77;;
6424;SDS011;12193;42.642;23.384;2023-04-15T04:46:07;12.37;;;6.13;;
6424;SDS011;12193;42.642;23.384;2023-04-15T04:48:37;10.20;;;5.43;;
6424;SDS011;12193;42.642;23.384;2023-04-15T04:51:06;10.67;;;6.80;;
6424;SDS011;12193;42.642;23.384;2023-04-15T04:53:36;12.10;;;6.00;;
6424;SDS011;12193;42.642;23.384;2023-04-15T04:56:05;13.77;;;6.53;;
6424;SDS011;12193;42.642;23.384;2023-04-15T04:58:38;12.30;;;7.20;;
6424;SDS011;12193;42.642;23.384;2023-04-15T05:01:07;11.90;;;6.80;;
6424;SDS011;12193;42.642;23.384;2023-04-15T05:03:37;10.73;;;6.83;;
6424;SDS011;12193;42.642;23.384;2023-04-15T05:06:06;14.83;;;7.20;;
6424;SDS011;12193;42.642;23.384;2023-04-15T05:08:35;11.40;;;7.00;;
6424;SDS011;12193;42.642;23.384;2023-04-15T05:11:06;13.33;;;6.93;;
6424;SDS011;12193;42.642;23.384;2023-04-15T05:13:38;12.60;;;6.97;;
6424;SDS011;12193;42.642;23.384;2023-04-15T05:16:07;11.67;;;7.03;;
6424;SDS011;12193;42.642;23.384;2023-04-15T05:18:37;9.67;;;6.43;;
6424;SDS011;12193;42.642;23.384;2023-04-15T05:21:06;10.67;;;6.70;;
6424;SDS011;12193;42.642;23.384;2023-04-15T05:23:35;11.10;;;6.23;;
6424;SDS011;12193;42.642;23.384;2023-04-15T05:26:06;13.67;;;6.50;;
6424;SDS011;12193;42.642;23.384;2023-04-15T05:28:38;10.60;;;6.20;;
6424;SDS011;12193;42.642;23.384;2023-04-15T05:31:07;10.00;;;6.17;;
6424;SDS011;12193;42.642;23.384;2023-04-15T05:33:36;12.70;;;6.27;;
6424;SDS011;12193;42.642;23.384;2023-04-15T05:36:06;9.73;;;5.77;;
6424;SDS011;12193;42.642;23.384;2023-04-15T05:38:36;10.53;;;6.07;;
6424;SDS011;12193;42.642;23.384;2023-04-15T05:41:05;11.20;;;5.50;;
6424;SDS011;12193;42.642;23.384;2023-04-15T05:43:34;8.87;;;5.80;;
6424;SDS011;12193;42.642;23.384;2023-04-15T05:46:06;7.20;;;5.00;;
6424;SDS011;12193;42.642;23.384;2023-04-15T05:48:36;8.37;;;5.20;;
6424;SDS011;12193;42.642;23.384;2023-04-15T05:51:05;8.93;;;5.00;;
6424;SDS011;12193;42.642;23.384;2023-04-15T05:53:35;8.13;;;5.33;;
6424;SDS011;12193;42.642;23.384;2023-04-15T05:56:06;8.43;;;5.47;;
6424;SDS011;12193;42.642;23.384;2023-04-15T05:58:38;8.80;;;4.87;;
6424;SDS011;12193;42.642;23.384;2023-04-15T06:01:07;10.30;;;4.07;;
6424;SDS011;12193;42.642;23.384;2023-04-15T06:03:37;7.37;;;4.57;;
6424;SDS011;12193;42.642;23.384;2023-04-15T06:06:06;6.73;;;4.30;;
6424;SDS011;12193;42.642;23.384;2023-04-15T06:08:35;7.40;;;4.50;;
6424;SDS011;12193;42.642;23.384;2023-04-15T06:11:05;11.53;;;4.40;;
6424;SDS011;12193;42.642;23.384;2023-04-15T06:13:35;8.17;;;4.50;;
6424;SDS011;12193;42.642;23.384;2023-04-15T06:16:07;8.23;;;4.63;;
6424;SDS011;12193;42.642;23.384;2023-04-15T06:18:37;7.70;;;4.53;;
6424;SDS011;12193;42.642;23.384;2023-04-15T06:21:06;8.70;;;4.93;;
6424;SDS011;12193;42.642;23.384;2023-04-15T06:23:36;8.50;;;4.00;;
6424;SDS011;12193;42.642;23.384;2023-04-15T06:26:06;6.07;;;4.20;;
6424;SDS011;12193;42.642;23.384;2023-04-15T06:28:38;7.03;;;3.83;;
6424;SDS011;12193;42.642;23.384;2023-04-15T06:31:08;9.83;;;4.40;;
6424;SDS011;12193;42.642;23.384;2023-04-15T06:33:37;8.33;;;3.70;;
6424;SDS011;12193;42.642;23.384;2023-04-15T06:36:06;8.00;;;4.37;;
6424;SDS011;12193;42.642;23.384;2023-04-15T06:38:36;7.40;;;4.27;;
6424;SDS011;12193;42.642;23.384;2023-04-15T06:41:05;12.57;;;5.67;;
6424;SDS011;12193;42.642;23.384;2023-04-15T06:43:34;8.13;;;3.57;;
6424;SDS011;12193;42.642;23.384;2023-04-15T06:46:07;11.20;;;4.60;;
6424;SDS011;12193;42.642;23.384;2023-04-15T06:48:36;8.07;;;3.37;;
6424;SDS011;12193;42.642;23.384;2023-04-15T06:51:05;4.63;;;2.80;;
6424;SDS011;12193;42.642;23.384;2023-04-15T06:53:35;8.63;;;3.77;;
6424;SDS011;12193;42.642;23.384;2023-04-15T06:56:06;7.80;;;3.50;;
6424;SDS011;12193;42.642;23.384;2023-04-15T06:58:38;5.83;;;3.53;;
6424;SDS011;12193;42.642;23.384;2023-04-15T07:01:08;6.77;;;3.90;;
6424;SDS011;12193;42.642;23.384;2023-04-15T07:03:38;6.60;;;3.43;;
6424;SDS011;12193;42.642;23.384;2023-04-15T07:06:08;5.43;;;3.07;;
6424;SDS011;12193;42.642;23.384;2023-04-15T07:08:38;7.87;;;2.73;;
6424;SDS011;12193;42.642;23.384;2023-04-15T07:11:07;4.50;;;2.70;;
6424;SDS011;12193;42.642;23.384;2023-04-15T07:13:39;6.30;;;2.53;;
6424;SDS011;12193;42.642;23.384;2023-04-15T07:16:09;6.57;;;3.03;;
6424;SDS011;12193;42.642;23.384;2023-04-15T07:18:38;7.17;;;2.63;;
6424;SDS011;12193;42.642;23.384;2023-04-15T07:21:08;5.63;;;2.77;;
6424;SDS011;12193;42.642;23.384;2023-04-15T07:23:38;4.33;;;2.77;;
6424;SDS011;12193;42.642;23.384;2023-04-15T07:26:07;5.67;;;2.90;;
6424;SDS011;12193;42.642;23.384;2023-04-15T07:28:39;3.80;;;2.80;;
6424;SDS011;12193;42.642;23.384;2023-04-15T07:31:11;6.27;;;3.50;;
6424;SDS011;12193;42.642;23.384;2023-04-15T07:33:41;9.60;;;3.37;;
6424;SDS011;12193;42.642;23.384;2023-04-15T07:36:10;7.30;;;3.93;;
6424;SDS011;12193;42.642;23.384;2023-04-15T07:38:40;9.03;;;3.50;;
6424;SDS011;12193;42.642;23.384;2023-04-15T07:41:09;8.23;;;3.83;;
6424;SDS011;12193;42.642;23.384;2023-04-15T07:43:41;7.27;;;3.90;;
6424;SDS011;12193;42.642;23.384;2023-04-15T07:46:11;5.80;;;3.90;;
6424;SDS011;12193;42.642;23.384;2023-04-15T07:48:40;5.97;;;3.63;;
6424;SDS011;12193;42.642;23.384;2023-04-15T07:51:10;6.23;;;3.53;;
6424;SDS011;12193;42.642;23.384;2023-04-15T07:53:39;5.73;;;3.13;;
6424;SDS011;12193;42.642;23.384;2023-04-15T07:56:09;8.70;;;3.27;;
6424;SDS011;12193;42.642;23.384;2023-04-15T07:58:41;7.73;;;3.60;;
6424;SDS011;12193;42.642;23.384;2023-04-15T08:01:11;7.93;;;3.70;;
6424;SDS011;12193;42.642;23.384;2023-04-15T08:03:41;6.70;;;3.50;;
6424;SDS011;12193;42.642;23.384;2023-04-15T08:06:10;5.20;;;3.20;;
6424;SDS011;12193;42.642;23.384;2023-04-15T08:08:39;3.87;;;3.10;;
6424;SDS011;12193;42.642;23.384;2023-04-15T08:11:09;5.07;;;2.70;;
6424;SDS011;12193;42.642;23.384;2023-04-15T08:13:40;6.13;;;3.13;;
6424;SDS011;12193;42.642;23.384;2023-04-15T08:16:14;5.40;;;3.00;;
6424;SDS011;12193;42.642;23.384;2023-04-15T08:18:46;5.03;;;2.77;;
6424;SDS011;12193;42.642;23.384;2023-04-15T08:21:16;3.10;;;2.13;;
6424;SDS011;12193;42.642;23.384;2023-04-15T08:23:47;6.67;;;2.87;;
6424;SDS011;12193;42.642;23.384;2023-04-15T08:26:19;6.10;;;2.30;;
6424;SDS011;12193;42.642;23.384;2023-04-15T08:28:52;3.27;;;2.43;;
6424;SDS011;12193;42.642;23.384;2023-04-15T08:31:22;3.13;;;2.10;;
6424;SDS011;12193;42.642;23.384;2023-04-15T08:33:51;4.23;;;2.10;;
6424;SDS011;12193;42.642;23.384;2023-04-15T08:36:21;4.40;;;2.27;;
6424;SDS011;12193;42.642;23.384;2023-04-15T08:38:51;4.93;;;2.87;;
6424;SDS011;12193;42.642;23.384;2023-04-15T08:41:21;4.50;;;2.90;;
6424;SDS011;12193;42.642;23.384;2023-04-15T08:43:55;6.07;;;2.70;;
6424;SDS011;12193;42.642;23.384;2023-04-15T08:46:26;6.50;;;2.73;;
6424;SDS011;12193;42.642;23.384;2023-04-15T08:48:56;5.17;;;2.80;;
6424;SDS011;12193;42.642;23.384;2023-04-15T08:51:27;5.03;;;2.47;;
6424;SDS011;12193;42.642;23.384;2023-04-15T08:53:57;3.80;;;2.20;;
6424;SDS011;12193;42.642;23.384;2023-04-15T08:56:26;4.77;;;2.53;;
6424;SDS011;12193;42.642;23.384;2023-04-15T08:59:00;5.47;;;3.00;;
6424;SDS011;12193;42.642;23.384;2023-04-15T09:01:30;3.70;;;2.40;;
6424;SDS011;12193;42.642;23.384;2023-04-15T09:04:00;5.40;;;2.30;;
6424;SDS011;12193;42.642;23.384;2023-04-15T09:06:32;4.87;;;2.40;;
6424;SDS011;12193;42.642;23.384;2023-04-15T09:09:02;3.33;;;2.40;;
6424;SDS011;12193;42.642;23.384;2023-04-15T09:11:32;5.33;;;2.37;;
6424;SDS011;12193;42.642;23.384;2023-04-15T09:14:04;3.03;;;2.00;;
6424;SDS011;12193;42.642;23.384;2023-04-15T09:19:28;3.67;;;2.10;;
6424;SDS011;12193;42.642;23.384;2023-04-15T09:21:58;3.40;;;1.70;;
6424;SDS011;12193;42.642;23.384;2023-04-15T09:24:33;2.60;;;1.57;;
6424;SDS011;12193;42.642;23.384;2023-04-15T09:27:05;2.70;;;1.60;;
6424;SDS011;12193;42.642;23.384;2023-04-15T09:29:37;2.40;;;1.40;;
6424;SDS011;12193;42.642;23.384;2023-04-15T09:32:09;3.50;;;1.80;;
6424;SDS011;12193;42.642;23.384;2023-04-15T09:34:40;3.03;;;1.47;;
6424;SDS011;12193;42.642;23.384;2023-04-15T09:37:10;2.10;;;1.47;;
6424;SDS011;12193;42.642;23.384;2023-04-15T09:39:46;2.63;;;1.70;;
6424;SDS011;12193;42.642;23.384;2023-04-15T09:42:16;2.10;;;1.47;;
6424;SDS011;12193;42.642;23.384;2023-04-15T09:44:52;3.93;;;1.53;;
6424;SDS011;12193;42.642;23.384;2023-04-15T09:47:27;2.43;;;1.60;;
6424;SDS011;12193;42.642;23.384;2023-04-15T09:49:57;3.87;;;1.60;;
6424;SDS011;12193;42.642;23.384;2023-04-15T09:52:28;3.77;;;1.80;;
6424;SDS011;12193;42.642;23.384;2023-04-15T09:54:58;2.87;;;1.70;;
6424;SDS011;12193;42.642;23.384;2023-04-15T09:57:32;4.60;;;1.60;;
6424;SDS011;12193;42.642;23.384;2023-04-15T10:00:06;2.10;;;1.50;;
6424;SDS011;12193;42.642;23.384;2023-04-15T10:02:36;4.07;;;1.47;;
6424;SDS011;12193;42.642;23.384;2023-04-15T10:05:08;1.47;;;1.30;;
6424;SDS011;12193;42.642;23.384;2023-04-15T10:07:39;3.30;;;1.73;;
6424;SDS011;12193;42.642;23.384;2023-04-15T10:10:09;2.20;;;1.60;;
6424;SDS011;12193;42.642;23.384;2023-04-15T10:12:39;2.43;;;1.47;;
6424;SDS011;12193;42.642;23.384;2023-04-15T10:15:13;2.90;;;1.53;;
6424;SDS011;12193;42.642;23.384;2023-04-15T10:17:44;1.80;;;1.40;;
6424;SDS011;12193;42.642;23.384;2023-04-15T10:20:18;3.40;;;1.60;;
6424;SDS011;12193;42.642;23.384;2023-04-15T10:22:48;2.97;;;1.50;;
6424;SDS011;12193;42.642;23.384;2023-04-15T10:25:19;3.97;;;1.43;;
6424;SDS011;12193;42.642;23.384;2023-04-15T10:27:49;3.53;;;1.50;;
6424;SDS011;12193;42.642;23.384;2023-04-15T10:30:21;1.80;;;1.30;;
6424;SDS011;12193;42.642;23.384;2023-04-15T10:32:51;4.00;;;2.00;;
6424;SDS011;12193;42.642;23.384;2023-04-15T10:35:22;2.17;;;1.50;;
6424;SDS011;12193;42.642;23.384;2023-04-15T10:37:52;3.13;;;1.40;;
6424;SDS011;12193;42.642;23.384;2023-04-15T10:40:27;4.47;;;1.40;;
6424;SDS011;12193;42.642;23.384;2023-04-15T10:42:58;1.70;;;1.40;;
6424;SDS011;12193;42.642;23.384;2023-04-15T10:45:31;3.50;;;1.70;;
6424;SDS011;12193;42.642;23.384;2023-04-15T10:48:02;2.73;;;1.60;;
6424;SDS011;12193;42.642;23.384;2023-04-15T10:50:34;3.00;;;1.57;;
6424;SDS011;12193;42.642;23.384;2023-04-15T10:53:05;3.17;;;1.40;;
6424;SDS011;12193;42.642;23.384;2023-04-15T10:55:38;2.87;;;1.50;;
6424;SDS011;12193;42.642;23.384;2023-04-15T10:58:07;2.70;;;1.40;;
6424;SDS011;12193;42.642;23.384;2023-04-15T11:00:43;2.60;;;1.50;;
6424;SDS011;12193;42.642;23.384;2023-04-15T11:03:21;1.90;;;1.40;;
6424;SDS011;12193;42.642;23.384;2023-04-15T11:06:05;1.60;;;1.50;;
6424;SDS011;12193;42.642;23.384;2023-04-15T11:14:22;3.40;;;1.53;;
6424;SDS011;12193;42.642;23.384;2023-04-15T11:16:54;1.63;;;1.40;;
6424;SDS011;12193;42.642;23.384;2023-04-15T11:19:24;2.43;;;1.40;;
6424;SDS011;12193;42.642;23.384;2023-04-15T11:21:53;3.13;;;1.40;;
6424;SDS011;12193;42.642;23.384;2023-04-15T11:24:23;3.20;;;1.47;;
6424;SDS011;12193;42.642;23.384;2023-04-15T11:26:56;7.47;;;1.73;;
6424;SDS011;12193;42.642;23.384;2023-04-15T11:29:27;3.27;;;1.40;;
6424;SDS011;12193;42.642;23.384;2023-04-15T11:32:07;3.63;;;1.30;;
6424;SDS011;12193;42.642;23.384;2023-04-15T11:34:37;3.03;;;1.70;;
6424;SDS011;12193;42.642;23.384;2023-04-15T11:37:06;2.57;;;1.50;;
6424;SDS011;12193;42.642;23.384;2023-04-15T11:39:36;3.07;;;1.47;;
6424;SDS011;12193;42.642;23.384;2023-04-15T11:42:15;2.27;;;1.57;;
6424;SDS011;12193;42.642;23.384;2023-04-15T11:44:46;3.50;;;1.67;;
6424;SDS011;12193;42.642;23.384;2023-04-15T11:47:24;2.03;;;1.30;;
6424;SDS011;12193;42.642;23.384;2023-04-15T11:49:53;4.30;;;1.40;;
6424;SDS011;12193;42.642;23.384;2023-04-15T11:52:23;2.17;;;1.47;;
6424;SDS011;12193;42.642;23.384;2023-04-15T11:54:55;2.47;;;1.50;;
6424;SDS011;12193;42.642;23.384;2023-04-15T11:57:31;2.60;;;1.30;;
6424;SDS011;12193;42.642;23.384;2023-04-15T12:00:02;2.10;;;1.50;;
6424;SDS011;12193;42.642;23.384;2023-04-15T12:02:37;2.30;;;1.60;;
6424;SDS011;12193;42.642;23.384;2023-04-15T12:05:07;1.93;;;1.53;;
6424;SDS011;12193;42.642;23.384;2023-04-15T12:10:26;3.17;;;1.50;;
6424;SDS011;12193;42.642;23.384;2023-04-15T12:12:59;3.40;;;1.40;;
6424;SDS011;12193;42.642;23.384;2023-04-15T12:15:28;2.80;;;1.70;;
6424;SDS011;12193;42.642;23.384;2023-04-15T12:18:00;3.37;;;1.53;;
6424;SDS011;12193;42.642;23.384;2023-04-15T12:20:29;4.07;;;1.40;;
6424;SDS011;12193;42.642;23.384;2023-04-15T12:23:04;3.50;;;1.10;;
6424;SDS011;12193;42.642;23.384;2023-04-15T12:25:34;3.27;;;1.50;;
6424;SDS011;12193;42.642;23.384;2023-04-15T12:28:09;3.97;;;1.40;;
6424;SDS011;12193;42.642;23.384;2023-04-15T12:30:47;2.93;;;1.27;;
6424;SDS011;12193;42.642;23.384;2023-04-15T12:33:20;1.63;;;1.20;;
6424;SDS011;12193;42.642;23.384;2023-04-15T12:35:49;3.07;;;1.03;;
6424;SDS011;12193;42.642;23.384;2023-04-15T12:38:18;1.77;;;1.03;;
6424;SDS011;12193;42.642;23.384;2023-04-15T12:40:48;2.07;;;1.10;;
6424;SDS011;12193;42.642;23.384;2023-04-15T12:43:17;1.40;;;1.20;;
6424;SDS011;12193;42.642;23.384;2023-04-15T12:45:47;3.50;;;1.20;;
6424;SDS011;12193;42.642;23.384;2023-04-15T12:48:16;1.30;;;0.90;;
6424;SDS011;12193;42.642;23.384;2023-04-15T12:50:48;3.10;;;1.20;;
6424;SDS011;12193;42.642;23.384;2023-04-15T12:53:17;2.23;;;1.13;;
6424;SDS011;12193;42.642;23.384;2023-04-15T12:55:46;1.80;;;1.20;;
6424;SDS011;12193;42.642;23.384;2023-04-15T12:58:16;4.63;;;1.70;;
6424;SDS011;12193;42.642;23.384;2023-04-15T13:00:45;1.60;;;1.10;;
6424;SDS011;12193;42.642;23.384;2023-04-15T13:03:15;1.23;;;1.10;;
6424;SDS011;12193;42.642;23.384;2023-04-15T13:05:44;2.60;;;1.00;;
6424;SDS011;12193;42.642;23.384;2023-04-15T13:08:16;1.10;;;1.00;;
6424;SDS011;12193;42.642;23.384;2023-04-15T13:10:46;2.60;;;1.20;;
6424;SDS011;12193;42.642;23.384;2023-04-15T13:13:16;2.77;;;1.27;;
6424;SDS011;12193;42.642;23.384;2023-04-15T13:15:45;1.00;;;0.90;;
6424;SDS011;12193;42.642;23.384;2023-04-15T13:18:14;7.00;;;0.93;;
6424;SDS011;12193;42.642;23.384;2023-04-15T13:20:43;1.90;;;1.00;;
6424;SDS011;12193;42.642;23.384;2023-04-15T13:23:13;1.87;;;1.20;;
6424;SDS011;12193;42.642;23.384;2023-04-15T13:25:45;2.97;;;1.10;;
6424;SDS011;12193;42.642;23.384;2023-04-15T13:28:15;1.80;;;1.20;;
6424;SDS011;12193;42.642;23.384;2023-04-15T13:30:44;3.90;;;1.10;;
6424;SDS011;12193;42.642;23.384;2023-04-15T13:33:15;1.53;;;1.03;;
6424;SDS011;12193;42.642;23.384;2023-04-15T13:35:45;1.20;;;1.10;;
6424;SDS011;12193;42.642;23.384;2023-04-15T13:38:16;2.77;;;1.30;;
6424;SDS011;12193;42.642;23.384;2023-04-15T13:40:46;1.30;;;1.07;;
6424;SDS011;12193;42.642;23.384;2023-04-15T13:43:16;2.60;;;1.20;;
6424;SDS011;12193;42.642;23.384;2023-04-15T13:45:46;1.20;;;1.10;;
6424;SDS011;12193;42.642;23.384;2023-04-15T13:48:16;1.63;;;1.00;;
6424;SDS011;12193;42.642;23.384;2023-04-15T13:50:45;1.57;;;0.80;;
6424;SDS011;12193;42.642;23.384;2023-04-15T13:53:17;1.17;;;1.07;;
6424;SDS011;12193;42.642;23.384;2023-04-15T13:55:47;2.13;;;0.80;;
6424;SDS011;12193;42.642;23.384;2023-04-15T13:58:16;1.87;;;0.87;;
6424;SDS011;12193;42.642;23.384;2023-04-15T14:00:45;3.93;;;1.40;;
6424;SDS011;12193;42.642;23.384;2023-04-15T14:03:15;1.93;;;0.97;;
6424;SDS011;12193;42.642;23.384;2023-04-15T14:05:44;1.73;;;1.00;;
6424;SDS011;12193;42.642;23.384;2023-04-15T14:08:20;1.17;;;0.90;;
6424;SDS011;12193;42.642;23.384;2023-04-15T14:10:50;2.60;;;1.10;;
6424;SDS011;12193;42.642;23.384;2023-04-15T14:13:20;1.47;;;1.00;;
6424;SDS011;12193;42.642;23.384;2023-04-15T14:15:49;2.17;;;1.03;;
6424;SDS011;12193;42.642;23.384;2023-04-15T14:18:18;1.70;;;0.80;;
6424;SDS011;12193;42.642;23.384;2023-04-15T14:20:47;2.80;;;0.90;;
6424;SDS011;12193;42.642;23.384;2023-04-15T14:23:17;1.67;;;1.03;;
6424;SDS011;12193;42.642;23.384;2023-04-15T14:25:49;3.60;;;1.10;;
6424;SDS011;12193;42.642;23.384;2023-04-15T14:28:18;1.73;;;0.90;;
6424;SDS011;12193;42.642;23.384;2023-04-15T14:30:48;2.00;;;0.90;;
6424;SDS011;12193;42.642;23.384;2023-04-15T14:33:17;3.40;;;1.10;;
6424;SDS011;12193;42.642;23.384;2023-04-15T14:35:48;0.93;;;0.83;;
6424;SDS011;12193;42.642;23.384;2023-04-15T14:38:20;3.13;;;1.33;;
6424;SDS011;12193;42.642;23.384;2023-04-15T14:40:52;1.40;;;1.00;;
6424;SDS011;12193;42.642;23.384;2023-04-15T14:43:21;3.03;;;1.20;;
6424;SDS011;12193;42.642;23.384;2023-04-15T14:45:51;1.83;;;1.10;;
6424;SDS011;12193;42.642;23.384;2023-04-15T14:48:20;1.70;;;1.13;;
6424;SDS011;12193;42.642;23.384;2023-04-15T14:50:50;2.37;;;1.10;;
6424;SDS011;12193;42.642;23.384;2023-04-15T14:53:22;1.20;;;1.10;;
6424;SDS011;12193;42.642;23.384;2023-04-15T14:55:52;2.90;;;1.27;;
6424;SDS011;12193;42.642;23.384;2023-04-15T14:58:21;1.90;;;1.03;;
6424;SDS011;12193;42.642;23.384;2023-04-15T15:00:50;2.33;;;1.10;;
6424;SDS011;12193;42.642;23.384;2023-04-15T15:03:20;1.63;;;1.03;;
6424;SDS011;12193;42.642;23.384;2023-04-15T15:05:50;2.53;;;1.20;;
6424;SDS011;12193;42.642;23.384;2023-04-15T15:08:22;1.83;;;1.00;;
6424;SDS011;12193;42.642;23.384;2023-04-15T15:10:52;1.93;;;0.90;;
6424;SDS011;12193;42.642;23.384;2023-04-15T15:13:21;1.50;;;1.10;;
6424;SDS011;12193;42.642;23.384;2023-04-15T15:15:50;3.77;;;1.20;;
6424;SDS011;12193;42.642;23.384;2023-04-15T15:18:20;1.47;;;1.30;;
6424;SDS011;12193;42.642;23.384;2023-04-15T15:20:50;2.20;;;1.23;;
6424;SDS011;12193;42.642;23.384;2023-04-15T15:23:22;2.00;;;1.07;;
6424;SDS011;12193;42.642;23.384;2023-04-15T15:25:51;1.93;;;1.13;;
6424;SDS011;12193;42.642;23.384;2023-04-15T15:28:20;3.07;;;1.10;;
6424;SDS011;12193;42.642;23.384;2023-04-15T15:30:50;3.53;;;1.80;;
6424;SDS011;12193;42.642;23.384;2023-04-15T15:33:19;2.13;;;1.40;;
6424;SDS011;12193;42.642;23.384;2023-04-15T15:35:49;1.80;;;1.17;;
6424;SDS011;12193;42.642;23.384;2023-04-15T15:38:18;1.70;;;1.20;;
6424;SDS011;12193;42.642;23.384;2023-04-15T15:40:50;2.80;;;1.10;;
6424;SDS011;12193;42.642;23.384;2023-04-15T15:43:20;1.93;;;1.20;;
6424;SDS011;12193;42.642;23.384;2023-04-15T15:45:49;1.93;;;1.20;;
6424;SDS011;12193;42.642;23.384;2023-04-15T15:48:20;1.90;;;1.20;;
6424;SDS011;12193;42.642;23.384;2023-04-15T15:50:50;2.20;;;1.40;;
6424;SDS011;12193;42.642;23.384;2023-04-15T15:53:20;3.13;;;1.37;;
6424;SDS011;12193;42.642;23.384;2023-04-15T15:55:53;2.23;;;1.30;;
6424;SDS011;12193;42.642;23.384;2023-04-15T15:58:22;6.30;;;1.50;;
6424;SDS011;12193;42.642;23.384;2023-04-15T16:00:51;2.37;;;1.50;;
6424;SDS011;12193;42.642;23.384;2023-04-15T16:03:21;2.43;;;1.50;;
6424;SDS011;12193;42.642;23.384;2023-04-15T16:05:51;2.60;;;1.90;;
6424;SDS011;12193;42.642;23.384;2023-04-15T16:08:20;2.10;;;1.47;;
6424;SDS011;12193;42.642;23.384;2023-04-15T16:10:50;3.30;;;1.87;;
6424;SDS011;12193;42.642;23.384;2023-04-15T16:13:22;1.93;;;1.30;;
6424;SDS011;12193;42.642;23.384;2023-04-15T16:15:51;4.23;;;1.70;;
6424;SDS011;12193;42.642;23.384;2023-04-15T16:18:20;2.13;;;1.20;;
6424;SDS011;12193;42.642;23.384;2023-04-15T16:20:50;1.77;;;1.10;;
6424;SDS011;12193;42.642;23.384;2023-04-15T16:23:20;1.70;;;1.23;;
6424;SDS011;12193;42.642;23.384;2023-04-15T16:25:49;2.10;;;1.30;;
6424;SDS011;12193;42.642;23.384;2023-04-15T16:28:21;3.87;;;1.50;;
6424;SDS011;12193;42.642;23.384;2023-04-15T16:30:51;3.17;;;1.57;;
6424;SDS011;12193;42.642;23.384;2023-04-15T16:33:21;2.90;;;1.90;;
6424;SDS011;12193;42.642;23.384;2023-04-15T16:35:50;4.50;;;1.60;;
6424;SDS011;12193;42.642;23.384;2023-04-15T16:38:19;4.07;;;1.67;;
6424;SDS011;12193;42.642;23.384;2023-04-15T16:40:49;2.57;;;1.63;;
6424;SDS011;12193;42.642;23.384;2023-04-15T16:43:21;4.23;;;2.10;;
6424;SDS011;12193;42.642;23.384;2023-04-15T16:45:51;3.23;;;2.50;;
6424;SDS011;12193;42.642;23.384;2023-04-15T16:48:20;4.13;;;2.93;;
6424;SDS011;12193;42.642;23.384;2023-04-15T16:50:49;4.80;;;2.30;;
6424;SDS011;12193;42.642;23.384;2023-04-15T16:53:19;3.80;;;2.50;;
6424;SDS011;12193;42.642;23.384;2023-04-15T16:55:48;5.53;;;2.50;;
6424;SDS011;12193;42.642;23.384;2023-04-15T16:58:17;5.77;;;2.60;;
6424;SDS011;12193;42.642;23.384;2023-04-15T17:00:49;3.20;;;2.20;;
6424;SDS011;12193;42.642;23.384;2023-04-15T17:03:19;8.07;;;2.90;;
6424;SDS011;12193;42.642;23.384;2023-04-15T17:05:48;4.23;;;2.80;;
6424;SDS011;12193;42.642;23.384;2023-04-15T17:08:17;7.27;;;2.83;;
6424;SDS011;12193;42.642;23.384;2023-04-15T17:10:46;7.27;;;2.87;;
6424;SDS011;12193;42.642;23.384;2023-04-15T17:13:16;5.00;;;2.60;;
6424;SDS011;12193;42.642;23.384;2023-04-15T17:15:46;5.17;;;2.33;;
6424;SDS011;12193;42.642;23.384;2023-04-15T17:18:18;5.77;;;2.20;;
6424;SDS011;12193;42.642;23.384;2023-04-15T17:20:47;4.53;;;2.00;;
6424;SDS011;12193;42.642;23.384;2023-04-15T17:23:16;1.93;;;1.50;;
6424;SDS011;12193;42.642;23.384;2023-04-15T17:25:46;3.40;;;1.77;;
6424;SDS011;12193;42.642;23.384;2023-04-15T17:28:16;6.27;;;2.17;;
6424;SDS011;12193;42.642;23.384;2023-04-15T17:30:46;4.17;;;2.20;;
6424;SDS011;12193;42.642;23.384;2023-04-15T17:33:17;5.57;;;2.40;;
6424;SDS011;12193;42.642;23.384;2023-04-15T17:35:47;4.03;;;1.70;;
6424;SDS011;12193;42.642;23.384;2023-04-15T17:38:16;3.50;;;1.87;;
6424;SDS011;12193;42.642;23.384;2023-04-15T17:40:45;3.97;;;2.30;;
6424;SDS011;12193;42.642;23.384;2023-04-15T17:43:15;5.23;;;2.13;;
6424;SDS011;12193;42.642;23.384;2023-04-15T17:45:44;4.17;;;2.20;;
6424;SDS011;12193;42.642;23.384;2023-04-15T17:48:16;3.70;;;2.37;;
6424;SDS011;12193;42.642;23.384;2023-04-15T17:50:46;4.20;;;2.20;;
6424;SDS011;12193;42.642;23.384;2023-04-15T17:53:15;3.73;;;2.00;;
6424;SDS011;12193;42.642;23.384;2023-04-15T17:55:44;3.97;;;2.00;;
6424;SDS011;12193;42.642;23.384;2023-04-15T17:58:15;3.37;;;2.20;;
6424;SDS011;12193;42.642;23.384;2023-04-15T18:00:44;4.90;;;1.60;;
6424;SDS011;12193;42.642;23.384;2023-04-15T18:03:16;2.87;;;1.80;;
6424;SDS011;12193;42.642;23.384;2023-04-15T18:05:46;3.70;;;2.20;;
6424;SDS011;12193;42.642;23.384;2023-04-15T18:08:15;4.33;;;2.13;;
6424;SDS011;12193;42.642;23.384;2023-04-15T18:10:45;4.87;;;2.00;;
6424;SDS011;12193;42.642;23.384;2023-04-15T18:13:14;4.03;;;2.03;;
6424;SDS011;12193;42.642;23.384;2023-04-15T18:15:43;3.00;;;1.97;;
6424;SDS011;12193;42.642;23.384;2023-04-15T18:18:16;2.87;;;1.90;;
6424;SDS011;12193;42.642;23.384;2023-04-15T18:20:45;4.33;;;1.90;;